createdAt,value
2023-02-22T00:02:14.091Z,4.00
2023-02-22T00:04:42.234Z,4.80
2023-02-22T00:07:10.268Z,3.70
2023-02-22T00:09:38.371Z,3.20
2023-02-22T00:12:06.525Z,3.40
2023-02-22T00:14:34.537Z,4.40
2023-02-22T00:17:02.767Z,3.40
2023-02-22T00:19:31.314Z,5.30
2023-02-22T00:22:00.183Z,3.40
2023-02-22T00:24:29.519Z,3.30
2023-02-22T00:26:57.766Z,4.10
2023-02-22T00:29:26.437Z,4.10
2023-02-22T00:31:54.631Z,4.20
2023-02-22T00:34:24.304Z,2.90
2023-02-22T00:36:52.445Z,3.70
2023-02-22T00:39:20.737Z,4.20
2023-02-22T00:41:49.837Z,3.10
2023-02-22T00:44:18.054Z,4.00
2023-02-22T00:46:46.879Z,3.20
2023-02-22T00:49:16.949Z,3.00
2023-02-22T00:51:45.430Z,3.90
2023-02-22T00:54:14.481Z,3.00
2023-02-22T00:56:42.900Z,3.30
2023-02-22T00:59:11.086Z,2.80
2023-02-22T01:01:39.323Z,4.10
2023-02-22T01:04:07.352Z,3.30
2023-02-22T01:06:36.194Z,3.40
2023-02-22T01:09:04.437Z,4.10
2023-02-22T01:11:32.398Z,3.20
2023-02-22T01:14:02.383Z,2.60
2023-02-22T01:16:30.663Z,4.30
2023-02-22T01:19:01.435Z,3.00
2023-02-22T01:21:29.658Z,3.90
2023-02-22T01:23:57.669Z,3.50
2023-02-22T01:26:25.785Z,3.50
2023-02-22T01:28:54.587Z,3.20
2023-02-22T01:31:24.082Z,4.10
2023-02-22T01:33:52.286Z,3.30
2023-02-22T01:36:20.466Z,2.90
2023-02-22T01:38:48.522Z,3.10
2023-02-22T01:41:18.562Z,3.80
2023-02-22T01:43:46.821Z,2.40
2023-02-22T01:46:24.861Z,2.60
2023-02-22T01:48:59.316Z,3.50
2023-02-22T01:51:37.849Z,3.50
2023-02-22T01:54:15.339Z,4.40
2023-02-22T01:57:06.730Z,3.20
2023-02-22T01:59:38.091Z,4.00
2023-02-22T02:02:06.839Z,3.30
2023-02-22T02:04:36.447Z,3.70
2023-02-22T02:07:07.966Z,3.70
2023-02-22T02:09:43.586Z,3.10
2023-02-22T02:12:14.119Z,3.10
2023-02-22T02:14:44.046Z,2.90
2023-02-22T02:17:17.897Z,3.30
2023-02-22T02:19:59.330Z,3.20
2023-02-22T02:22:42.800Z,2.90
2023-02-22T02:25:30.937Z,2.70
2023-02-22T02:28:11.426Z,2.80
2023-02-22T02:30:45.418Z,3.20
2023-02-22T02:33:29.585Z,3.10
2023-02-22T02:36:04.640Z,2.90
2023-02-22T02:38:57.993Z,3.30
2023-02-22T02:41:33.785Z,3.20
2023-02-22T02:44:13.425Z,3.40
2023-02-22T02:47:29.078Z,3.60
2023-02-22T02:50:00.904Z,2.80
2023-02-22T02:52:31.986Z,4.40
2023-02-22T02:55:03.085Z,4.70
2023-02-22T02:57:31.170Z,4.50
2023-02-22T03:00:01.006Z,3.30
2023-02-22T03:02:49.718Z,3.60
2023-02-22T03:05:57.711Z,3.40
2023-02-22T03:08:31.830Z,4.70
2023-02-22T03:11:15.118Z,4.20
2023-02-22T03:14:09.185Z,4.80
2023-02-22T03:16:52.682Z,7.90
2023-02-22T03:19:35.873Z,3.80
2023-02-22T03:22:25.069Z,5.10
2023-02-22T03:24:56.067Z,3.90
2023-02-22T03:27:46.557Z,6.30
2023-02-22T03:30:29.052Z,5.00
2023-02-22T03:33:02.143Z,4.20
2023-02-22T03:35:34.867Z,4.40
2023-02-22T03:38:06.208Z,4.90
2023-02-22T03:40:39.551Z,3.90
2023-02-22T03:43:11.941Z,4.20
2023-02-22T03:45:44.974Z,5.60
2023-02-22T03:48:23.504Z,4.40
2023-02-22T03:50:52.472Z,3.90
2023-02-22T03:53:23.280Z,4.70
2023-02-22T03:55:54.258Z,5.50
2023-02-22T03:58:24.501Z,4.70
2023-02-22T04:00:53.411Z,6.70
2023-02-22T04:03:23.122Z,3.90
2023-02-22T04:05:52.210Z,5.10
2023-02-22T04:08:20.991Z,5.00
2023-02-22T04:10:49.663Z,4.80
2023-02-22T04:13:22.019Z,4.30
2023-02-22T04:15:51.963Z,4.50
2023-02-22T04:18:20.195Z,4.40
2023-02-22T04:20:49.736Z,5.00
2023-02-22T04:23:30.017Z,3.40
2023-02-22T04:25:59.480Z,4.60
2023-02-22T04:28:27.556Z,4.40
2023-02-22T04:31:06.201Z,4.00
2023-02-22T04:33:34.513Z,4.40
2023-02-22T04:36:02.794Z,4.60
2023-02-22T04:38:34.035Z,4.60
2023-02-22T04:41:02.407Z,4.20
2023-02-22T04:43:30.687Z,5.50
2023-02-22T04:46:13.152Z,4.30
2023-02-22T04:48:41.498Z,3.70
2023-02-22T04:51:10.023Z,4.30
2023-02-22T04:53:40.612Z,3.40
2023-02-22T04:56:08.799Z,3.40
2023-02-22T04:58:36.977Z,3.40
2023-02-22T05:01:05.175Z,4.60
2023-02-22T05:03:33.473Z,3.20
2023-02-22T05:06:01.706Z,3.70
2023-02-22T05:08:29.778Z,3.50
2023-02-22T05:10:57.850Z,3.30
2023-02-22T05:13:26.102Z,3.50
2023-02-22T05:15:54.500Z,4.70
2023-02-22T05:18:22.797Z,4.50
2023-02-22T05:20:50.785Z,5.10
2023-02-22T05:23:18.772Z,4.50
2023-02-22T05:25:46.961Z,5.60
2023-02-22T05:28:16.050Z,5.10
2023-02-22T05:30:44.251Z,4.70
2023-02-22T05:33:13.165Z,4.50
2023-02-22T05:35:41.133Z,6.00
2023-02-22T05:38:15.014Z,6.20
2023-02-22T05:40:43.243Z,4.80
2023-02-22T05:43:11.367Z,5.80
2023-02-22T05:45:39.456Z,5.70
2023-02-22T05:48:07.986Z,6.80
2023-02-22T05:50:35.980Z,6.20
2023-02-22T05:53:05.713Z,6.00
2023-02-22T05:55:33.622Z,8.20
2023-02-22T05:58:01.978Z,4.90
2023-02-22T06:00:31.516Z,4.30
2023-02-22T06:03:09.333Z,6.10
2023-02-22T06:05:38.155Z,4.50
2023-02-22T06:08:07.812Z,6.00
2023-02-22T06:10:36.056Z,6.30
2023-02-22T06:13:06.094Z,5.70
2023-02-22T06:15:34.317Z,4.90
2023-02-22T06:18:02.900Z,4.70
2023-02-22T06:20:31.425Z,5.90
2023-02-22T06:22:59.562Z,5.00
2023-02-22T06:25:31.389Z,5.10
2023-02-22T06:28:01.314Z,7.70
2023-02-22T06:30:30.725Z,6.80
2023-02-22T06:32:58.826Z,4.90
2023-02-22T06:35:26.868Z,5.40
2023-02-22T06:37:54.960Z,3.90
2023-02-22T06:40:23.056Z,5.20
2023-02-22T06:42:51.176Z,6.20
2023-02-22T06:45:19.373Z,5.80
2023-02-22T06:47:47.960Z,6.20
2023-02-22T06:50:25.165Z,6.80
2023-02-22T06:52:53.277Z,6.10
2023-02-22T06:55:24.226Z,7.00
2023-02-22T06:57:52.930Z,5.50
2023-02-22T07:00:23.411Z,5.90
2023-02-22T07:02:52.753Z,6.60
2023-02-22T07:05:22.926Z,5.10
2023-02-22T07:07:55.196Z,5.90
2023-02-22T07:10:25.258Z,9.30
2023-02-22T07:12:53.858Z,6.20
2023-02-22T07:15:27.999Z,6.50
2023-02-22T07:17:56.803Z,6.70
2023-02-22T07:20:26.520Z,5.70
2023-02-22T07:22:54.958Z,8.20
2023-02-22T07:25:23.819Z,8.50
2023-02-22T07:27:53.081Z,7.00
2023-02-22T07:30:30.757Z,8.80
2023-02-22T07:33:01.163Z,6.60
2023-02-22T07:35:32.060Z,8.40
2023-02-22T07:38:00.165Z,6.50
2023-02-22T07:40:29.236Z,6.40
2023-02-22T07:43:07.205Z,6.30
2023-02-22T07:45:36.170Z,5.50
2023-02-22T07:48:05.819Z,9.00
2023-02-22T07:50:34.865Z,8.70
2023-02-22T07:53:05.662Z,8.60
2023-02-22T07:55:34.433Z,6.80
2023-02-22T07:58:04.843Z,6.80
2023-02-22T08:00:39.299Z,5.00
2023-02-22T08:03:10.170Z,5.20
2023-02-22T08:05:40.463Z,6.80
2023-02-22T08:08:08.588Z,6.40
2023-02-22T08:10:37.116Z,4.80
2023-02-22T08:13:06.294Z,5.40
2023-02-22T08:15:37.201Z,8.80
2023-02-22T08:18:11.381Z,4.40
2023-02-22T08:20:41.036Z,8.30
2023-02-22T08:23:10.577Z,7.10
2023-02-22T08:25:38.747Z,7.60
2023-02-22T08:28:10.448Z,7.20
2023-02-22T08:30:40.666Z,5.40
2023-02-22T08:33:11.049Z,5.80
2023-02-22T08:35:40.977Z,5.50
2023-02-22T08:38:18.208Z,8.00
2023-02-22T08:40:48.462Z,7.80
2023-02-22T08:43:17.299Z,9.10
2023-02-22T08:45:46.407Z,9.30
2023-02-22T08:48:16.023Z,4.00
2023-02-22T08:50:44.587Z,8.80
2023-02-22T08:53:14.846Z,6.80
2023-02-22T08:55:43.099Z,5.50
2023-02-22T08:58:12.407Z,5.90
2023-02-22T09:00:41.785Z,9.50
2023-02-22T09:03:14.125Z,6.30
2023-02-22T09:05:44.314Z,6.00
2023-02-22T09:08:12.831Z,5.00
2023-02-22T09:10:40.925Z,7.20
2023-02-22T09:13:09.018Z,5.80
2023-02-22T09:15:37.840Z,6.20
2023-02-22T09:18:11.093Z,7.50
2023-02-22T09:20:39.177Z,5.90
2023-02-22T09:23:09.884Z,7.90
2023-02-22T09:25:41.004Z,7.10
2023-02-22T09:28:09.494Z,6.80
2023-02-22T09:30:37.959Z,7.00
2023-02-22T09:33:11.192Z,7.90
2023-02-22T09:35:46.432Z,7.50
2023-02-22T09:38:17.874Z,7.70
2023-02-22T09:41:01.275Z,6.20
2023-02-22T09:43:40.656Z,6.60
2023-02-22T09:46:38.524Z,10.70
2023-02-22T09:49:16.213Z,6.30
2023-02-22T09:52:14.841Z,5.60
2023-02-22T09:54:52.145Z,8.20
2023-02-22T09:57:29.053Z,5.70
2023-02-22T10:00:13.864Z,5.80
2023-02-22T10:03:09.794Z,9.70
2023-02-22T10:05:41.941Z,7.90
2023-02-22T10:08:16.187Z,5.20
2023-02-22T10:10:46.234Z,5.80
2023-02-22T10:13:17.420Z,6.70
2023-02-22T10:15:59.350Z,7.30
2023-02-22T10:18:36.492Z,4.80
2023-02-22T10:21:14.476Z,6.80
2023-02-22T10:24:16.382Z,5.10
2023-02-22T10:26:46.916Z,6.60
2023-02-22T10:29:23.396Z,8.30
2023-02-22T10:31:57.555Z,7.30
2023-02-22T10:34:28.497Z,8.40
2023-02-22T10:37:24.284Z,6.80
2023-02-22T10:39:58.732Z,7.80
2023-02-22T10:42:28.748Z,8.00
2023-02-22T10:44:56.750Z,7.40
2023-02-22T10:47:25.406Z,7.40
2023-02-22T10:49:57.622Z,5.50
2023-02-22T10:52:29.710Z,6.00
2023-02-22T10:55:14.046Z,5.10
2023-02-22T10:57:46.538Z,6.30
2023-02-22T11:00:14.686Z,4.60
2023-02-22T11:02:53.648Z,6.90
2023-02-22T11:05:38.065Z,6.00
2023-02-22T11:08:21.147Z,8.10
2023-02-22T11:10:51.647Z,7.20
2023-02-22T11:13:39.652Z,8.40
2023-02-22T11:16:32.735Z,6.90
2023-02-22T11:19:25.466Z,6.40
2023-02-22T11:21:58.500Z,6.60
2023-02-22T11:24:32.386Z,7.00
2023-02-22T11:27:07.732Z,8.10
2023-02-22T11:29:37.373Z,6.40
2023-02-22T11:32:22.641Z,9.30
2023-02-22T11:35:03.581Z,7.00
2023-02-22T11:37:37.448Z,5.60
2023-02-22T11:40:13.140Z,6.60
2023-02-22T11:42:41.187Z,6.20
2023-02-22T11:45:12.846Z,5.90
2023-02-22T11:47:56.292Z,5.60
2023-02-22T11:50:28.272Z,5.40
2023-02-22T11:53:01.707Z,5.20
2023-02-22T11:55:45.092Z,5.30
2023-02-22T11:58:48.503Z,5.80
2023-02-22T12:01:21.609Z,6.90
2023-02-22T12:04:21.118Z,6.10
2023-02-22T12:07:26.582Z,5.50
2023-02-22T12:10:18.488Z,6.30
2023-02-22T12:12:55.633Z,5.20
2023-02-22T12:15:34.669Z,4.40
2023-02-22T12:18:24.710Z,5.10
2023-02-22T12:21:01.695Z,7.70
2023-02-22T12:23:45.017Z,6.80
2023-02-22T12:26:24.737Z,10.80
2023-02-22T12:29:00.643Z,5.90
2023-02-22T12:31:40.935Z,5.30
2023-02-22T12:34:27.761Z,5.60
2023-02-22T12:37:09.975Z,7.60
2023-02-22T12:39:52.367Z,5.40
2023-02-22T12:42:30.266Z,5.40
2023-02-22T12:45:08.371Z,5.00
2023-02-22T12:47:45.650Z,6.90
2023-02-22T12:50:23.557Z,5.00
2023-02-22T12:53:04.303Z,6.10
2023-02-22T12:55:49.846Z,7.00
2023-02-22T13:01:18.041Z,4.00
2023-02-22T13:03:46.668Z,6.10
2023-02-22T13:06:26.453Z,6.50
2023-02-22T13:09:13.008Z,11.50
2023-02-22T13:11:49.054Z,6.90
2023-02-22T13:14:42.565Z,5.60
2023-02-22T13:17:25.869Z,4.60
2023-02-22T13:20:06.130Z,7.60
2023-02-22T13:22:43.090Z,4.70
2023-02-22T13:25:18.943Z,7.30
2023-02-22T13:28:02.445Z,6.00
2023-02-22T13:31:12.644Z,8.00
2023-02-22T13:34:03.206Z,7.90
2023-02-22T13:37:02.226Z,7.20
2023-02-22T13:40:03.184Z,4.80
2023-02-22T13:42:43.913Z,8.40
2023-02-22T13:45:27.264Z,8.40
2023-02-22T13:48:21.778Z,8.30
2023-02-22T13:51:08.255Z,5.50
2023-02-22T13:53:54.449Z,7.30
2023-02-22T13:56:25.155Z,10.20
2023-02-22T13:58:57.494Z,7.10
2023-02-22T14:01:55.159Z,5.90
2023-02-22T14:04:29.404Z,6.70
2023-02-22T14:07:04.295Z,5.90
2023-02-22T14:09:50.583Z,8.60
2023-02-22T14:12:30.961Z,7.80
2023-02-22T14:15:27.763Z,4.80
2023-02-22T14:17:56.871Z,7.50
2023-02-22T14:20:36.960Z,6.20
2023-02-22T14:23:23.694Z,6.80
2023-02-22T14:25:52.103Z,8.70
2023-02-22T14:28:54.646Z,9.80
2023-02-22T14:31:38.908Z,7.00
2023-02-22T14:34:15.377Z,5.30
2023-02-22T14:36:55.535Z,7.30
2023-02-22T14:39:33.060Z,7.20
2023-02-22T14:42:25.630Z,5.60
2023-02-22T14:45:09.486Z,7.60
2023-02-22T14:48:01.290Z,6.20
2023-02-22T14:50:43.896Z,8.40
2023-02-22T14:53:40.976Z,7.50
2023-02-22T14:56:17.808Z,8.20
2023-02-22T14:58:55.248Z,7.20
2023-02-22T15:01:44.478Z,7.60
2023-02-22T15:04:26.414Z,7.80
2023-02-22T15:06:56.181Z,8.70
2023-02-22T15:09:28.863Z,7.60
2023-02-22T15:12:03.434Z,10.50
2023-02-22T15:14:38.141Z,10.40
2023-02-22T15:17:17.304Z,6.60
2023-02-22T15:19:48.655Z,8.30
2023-02-22T15:22:26.665Z,8.20
2023-02-22T15:25:00.150Z,10.10
2023-02-22T15:27:29.240Z,7.70
2023-02-22T15:30:04.793Z,10.40
2023-02-22T15:32:53.293Z,7.50
2023-02-22T15:35:33.991Z,8.80
2023-02-22T15:38:03.731Z,10.50
2023-02-22T15:40:33.552Z,10.50
2023-02-22T15:43:08.977Z,8.60
2023-02-22T15:45:43.137Z,9.80
2023-02-22T15:48:12.161Z,9.80
2023-02-22T15:50:40.144Z,9.80
2023-02-22T15:53:24.390Z,10.00
2023-02-22T15:55:58.850Z,9.90
2023-02-22T15:58:31.577Z,11.30
2023-02-22T16:01:11.055Z,12.60
2023-02-22T16:03:51.440Z,10.80
2023-02-22T16:06:38.253Z,11.40
2023-02-22T16:09:26.560Z,14.30
2023-02-22T16:12:22.453Z,12.70
2023-02-22T16:18:01.501Z,11.60
2023-02-22T16:20:32.603Z,11.00
2023-02-22T16:23:00.891Z,12.00
2023-02-22T16:25:35.591Z,13.10
2023-02-22T16:28:25.881Z,10.00
2023-02-22T16:30:57.815Z,11.60
2023-02-22T16:33:29.801Z,11.30
2023-02-22T16:35:57.913Z,9.50
2023-02-22T16:38:27.601Z,8.80
2023-02-22T16:40:58.471Z,8.20
2023-02-22T16:43:32.854Z,8.50
2023-02-22T16:46:02.846Z,9.80
2023-02-22T16:48:33.309Z,12.50
2023-02-22T16:51:14.887Z,7.60
2023-02-22T16:53:43.283Z,10.60
2023-02-22T16:56:16.372Z,8.70
2023-02-22T16:58:46.960Z,9.80
2023-02-22T17:01:15.127Z,8.00
2023-02-22T17:03:43.236Z,8.70
2023-02-22T17:06:11.674Z,8.40
2023-02-22T17:08:41.526Z,8.00
2023-02-22T17:11:12.921Z,7.80
2023-02-22T17:13:41.032Z,9.80
2023-02-22T17:16:14.718Z,7.90
2023-02-22T17:18:42.846Z,8.30
2023-02-22T17:21:11.552Z,6.70
2023-02-22T17:23:39.916Z,7.50
2023-02-22T17:26:07.931Z,6.80
2023-02-22T17:28:36.041Z,7.30
2023-02-22T17:31:04.136Z,8.10
2023-02-22T17:33:34.413Z,6.80
2023-02-22T17:36:04.980Z,5.20
2023-02-22T17:38:34.549Z,7.00
2023-02-22T17:41:03.449Z,5.90
2023-02-22T17:43:31.536Z,5.40
2023-02-22T17:46:00.004Z,7.10
2023-02-22T17:48:28.169Z,8.80
2023-02-22T17:50:56.414Z,9.80
2023-02-22T17:53:25.506Z,7.10
2023-02-22T17:55:53.654Z,9.20
2023-02-22T17:58:22.790Z,9.60
2023-02-22T18:00:51.259Z,8.70
2023-02-22T18:03:25.271Z,11.10
2023-02-22T18:06:00.053Z,9.40
2023-02-22T18:08:32.214Z,11.70
2023-02-22T18:11:05.217Z,9.10
2023-02-22T18:13:33.316Z,10.80
2023-02-22T18:16:04.959Z,9.40
2023-02-22T18:18:34.024Z,10.10
2023-02-22T18:21:03.775Z,10.10
2023-02-22T18:23:33.175Z,10.50
2023-02-22T18:26:11.493Z,12.40
2023-02-22T18:28:40.003Z,10.20
2023-02-22T18:31:14.591Z,12.90
2023-02-22T18:33:44.615Z,9.80
2023-02-22T18:36:14.201Z,9.20
2023-02-22T18:38:43.544Z,12.40
2023-02-22T18:41:14.728Z,13.40
2023-02-22T18:43:43.555Z,9.00
2023-02-22T18:46:18.250Z,11.70
2023-02-22T18:48:48.162Z,10.20
2023-02-22T18:51:17.651Z,17.10
2023-02-22T18:53:47.734Z,11.80
2023-02-22T18:56:21.898Z,11.00
2023-02-22T18:58:54.431Z,11.00
2023-02-22T19:01:23.538Z,11.30
2023-02-22T19:03:52.108Z,12.60
2023-02-22T19:06:23.335Z,10.40
2023-02-22T19:08:52.146Z,13.40
2023-02-22T19:11:23.530Z,10.50
2023-02-22T19:13:55.224Z,11.00
2023-02-22T19:16:25.521Z,10.40
2023-02-22T19:18:57.510Z,10.10
2023-02-22T19:21:30.955Z,10.10
2023-02-22T19:24:01.992Z,11.70
2023-02-22T19:26:30.908Z,16.90
2023-02-22T19:29:04.970Z,14.20
2023-02-22T19:31:34.093Z,17.00
2023-02-22T19:34:10.809Z,13.50
2023-02-22T19:36:40.862Z,15.90
2023-02-22T19:39:08.976Z,16.00
2023-02-22T19:41:38.239Z,13.60
2023-02-22T19:44:07.265Z,14.20
2023-02-22T19:46:36.872Z,13.20
2023-02-22T19:49:06.494Z,15.50
2023-02-22T19:51:34.942Z,15.00
2023-02-22T19:54:08.554Z,16.10
2023-02-22T19:56:37.413Z,14.40
2023-02-22T19:59:09.641Z,16.30
2023-02-22T20:01:38.492Z,15.60
2023-02-22T20:04:09.771Z,15.30
2023-02-22T20:06:42.823Z,17.10
2023-02-22T20:09:19.953Z,14.90
2023-02-22T20:11:49.524Z,16.80
2023-02-22T20:14:30.656Z,15.90
2023-02-22T20:17:01.188Z,19.50
2023-02-22T20:19:30.066Z,18.40
2023-02-22T20:22:01.985Z,20.30
2023-02-22T20:24:30.481Z,20.40
2023-02-22T20:26:58.804Z,18.50
2023-02-22T20:29:30.142Z,18.30
2023-02-22T20:32:00.716Z,20.70
2023-02-22T20:34:33.762Z,20.60
2023-02-22T20:37:03.275Z,18.70
2023-02-22T20:39:31.954Z,24.80
2023-02-22T20:42:00.693Z,18.70
2023-02-22T20:44:29.165Z,22.10
2023-02-22T20:46:57.360Z,20.30
2023-02-22T20:49:27.439Z,24.20
2023-02-22T20:51:55.653Z,23.80
2023-02-22T20:54:24.208Z,27.90
2023-02-22T20:56:53.169Z,27.90
2023-02-22T20:59:22.015Z,25.30
2023-02-22T21:01:53.184Z,22.20
2023-02-22T21:04:24.323Z,24.70
2023-02-22T21:06:53.270Z,26.70
2023-02-22T21:09:21.855Z,24.50
2023-02-22T21:11:50.562Z,27.60
2023-02-22T21:14:18.959Z,25.10
2023-02-22T21:16:49.937Z,25.90
2023-02-22T21:19:26.043Z,29.80
2023-02-22T21:21:57.000Z,28.70
2023-02-22T21:24:27.774Z,28.60
2023-02-22T21:26:59.195Z,31.60
2023-02-22T21:29:30.594Z,29.20
2023-02-22T21:32:00.784Z,29.20
2023-02-22T21:34:29.912Z,31.60
2023-02-22T21:36:58.251Z,35.00
2023-02-22T21:39:28.769Z,32.70
2023-02-22T21:42:01.107Z,30.50
2023-02-22T21:44:30.195Z,35.70
2023-02-22T21:46:58.792Z,30.80
2023-02-22T21:49:29.015Z,33.90
2023-02-22T21:51:57.809Z,32.30
2023-02-22T21:54:28.306Z,31.60
2023-02-22T21:56:57.875Z,30.50
2023-02-22T21:59:26.698Z,34.80
2023-02-22T22:01:56.712Z,30.70
2023-02-22T22:04:30.733Z,36.90
2023-02-22T22:07:01.984Z,31.80
2023-02-22T22:09:37.677Z,32.30
2023-02-22T22:12:10.349Z,34.90
2023-02-22T22:14:40.448Z,32.00
2023-02-22T22:17:09.642Z,30.80
2023-02-22T22:19:44.136Z,32.90
2023-02-22T22:22:12.966Z,33.00
2023-02-22T22:24:46.044Z,32.00
2023-02-22T22:27:14.309Z,32.10
2023-02-22T22:29:44.098Z,29.00
2023-02-22T22:32:12.921Z,27.90
2023-02-22T22:34:42.623Z,29.40
2023-02-22T22:37:11.131Z,28.20
2023-02-22T22:39:39.881Z,29.80
2023-02-22T22:42:09.477Z,29.10
2023-02-22T22:44:42.433Z,28.50
2023-02-22T22:47:13.887Z,30.30
2023-02-22T22:49:43.118Z,28.50
2023-02-22T22:52:14.172Z,25.20
2023-02-22T22:54:43.870Z,25.40
2023-02-22T22:57:12.422Z,23.20
2023-02-22T22:59:42.067Z,26.10
2023-02-22T23:02:11.516Z,27.40
2023-02-22T23:04:40.128Z,23.50
2023-02-22T23:07:08.872Z,25.00
2023-02-22T23:09:39.623Z,22.50
2023-02-22T23:12:16.961Z,26.80
2023-02-22T23:14:45.806Z,27.10
2023-02-22T23:17:26.909Z,25.10
2023-02-22T23:19:56.259Z,23.70
2023-02-22T23:22:24.348Z,23.90
2023-02-22T23:24:52.653Z,24.20
2023-02-22T23:27:20.934Z,26.70
2023-02-22T23:29:49.695Z,22.40
2023-02-22T23:32:19.191Z,22.70
2023-02-22T23:34:49.810Z,20.40
2023-02-22T23:37:20.952Z,20.90
2023-02-22T23:39:51.178Z,21.10
2023-02-22T23:42:19.577Z,20.90
2023-02-22T23:44:48.293Z,21.20
2023-02-22T23:47:16.632Z,23.20
2023-02-22T23:49:49.463Z,20.10
2023-02-22T23:52:24.521Z,21.40
2023-02-22T23:54:54.212Z,20.20
2023-02-22T23:57:24.382Z,18.50
2023-02-22T23:59:52.642Z,18.00
